• Join FlightAware (Why Join?)
  • Login
  • US Flag 
04:48PM EDT


 

Airport Tracker/Info


-or-


 

Live Flight TrackerFlight Track Log ✈ N92PK ✈ 23-Mar-2014 ✈ KCHA - KMWC

Flight Track Log - Related Links

Times and Time Zones

All times are in EDT time to prevent confusion due to time zone crossing. See the N92PK flight status page for this flight to view local times or setup timezone preferences in your user account.

Time Position Orientation Groundspeed Altitude Reporting Facility
EDT Latitude Longitude Course Direction KTS MPH feet Rate Location/Type
02:03PM 35.0572 -85.1936 335° Northwest 113 130 1,500  Level Memphis Center
02:04PM 35.0906 -85.1819 16° North 122 140 2,500 1,200 Climbing Memphis Center
02:05PM 35.1322 -85.1883 353° North 128 147 4,000 1,140 Climbing Memphis Center
02:06PM 35.1658 -85.2081 334° Northwest 130 150 4,900 900 Climbing Memphis Center
02:07PM 35.2000 -85.2269 336° Northwest 131 151 5,900 960 Climbing Memphis Center
02:08PM 35.1936 -85.2749 335° Northwest  Level FlightAware Approximate
02:08PM 35.2350 -85.2458 336° Northwest 131 151 6,900  Level Memphis Center
02:09PM 35.2711 -85.2661 335° Northwest 136 157 7,900 480 Climbing Memphis Center
02:10PM 35.3078 -85.2858 336° Northwest 141 162 8,000  Climbing Memphis Center
02:11PM 35.3581 -85.3144 335° Northwest 160 184 8,000  Level Memphis Center
02:12PM 35.3983 -85.3356 337° Northwest 160 184 8,000  Level Memphis Center
02:13PM 35.4369 -85.3581 335° Northwest 157 181 8,000  Level Memphis Center
02:14PM 35.4781 -85.3806 336° Northwest 157 181 8,000  Level Memphis Center
02:15PM 35.5189 -85.4022 337° Northwest 158 182 8,000  Level Memphis Center
02:16PM 35.5600 -85.4256 335° Northwest 159 183 8,000  Level Memphis Center
02:17PM 35.5997 -85.4475 336° Northwest 159 183 8,000  Level Memphis Center
02:18PM 35.6481 -85.4747 335° Northwest 159 183 8,000  Level Memphis Center
02:19PM 35.6872 -85.4964 336° Northwest 158 182 8,000  Level Memphis Center
02:20PM 35.7286 -85.5189 336° Northwest 158 182 8,000 -60 Level Memphis Center
02:21PM 35.7681 -85.5422 334° Northwest 158 182 7,900 -60 Descending Memphis Center
02:22PM 35.8092 -85.5647 336° Northwest 158 182 7,900  Level Memphis Center
02:24PM 35.8500 -85.5872 336° Northwest 158 182 7,900  Level Memphis Center
02:25PM 35.8894 -85.6097 335° Northwest 158 182 7,900  Level Memphis Center
02:26PM 35.9375 -85.6369 335° Northwest 158 182 7,900  Level Memphis Center
02:27PM 35.9775 -85.6583 337° Northwest 158 182 7,900  Level Memphis Center
02:28PM 36.0175 -85.6817 335° Northwest 158 182 7,900  Level Memphis Center
02:29PM 36.0564 -85.7036 335° Northwest 158 182 7,900  Level Memphis Center
02:30PM 36.0953 -85.7258 335° Northwest 158 182 7,900  Level Memphis Center
02:31PM 36.1339 -85.7464 337° Northwest 156 180 7,900  Level Memphis Center
02:32PM 36.1803 -85.7731 335° Northwest 155 178 7,900  Level Memphis Center
02:33PM 36.2203 -85.7947 336° Northwest 155 178 7,900  Level Memphis Center
02:34PM 36.2667 -85.8211 335° Northwest 155 178 7,900  Level Indianapolis Center
02:35PM 36.3053 -85.8425 336° Northwest 154 177 7,900  Level Indianapolis Center
02:36PM 36.3431 -85.8639 335° Northwest 153 176 7,900  Level Indianapolis Center
02:37PM 36.3744 -85.8817 335° Northwest 150 173 8,000  Climbing Memphis Center
02:38PM 36.4128 -85.9042 335° Northwest 150 173 8,000  Level Memphis Center
02:39PM 36.4508 -85.9261 335° Northwest 150 173 8,000  Level Memphis Center
02:40PM 36.4956 -85.9514 336° Northwest 150 173 8,000  Level Memphis Center
02:41PM 36.5342 -85.9736 335° Northwest 150 173 8,000  Level Memphis Center
02:42PM 36.5731 -85.9950 336° Northwest 150 173 8,000  Level Memphis Center
02:43PM 36.6103 -86.0167 335° Northwest 150 173 8,000  Level Memphis Center
02:44PM 36.6481 -86.0392 334° Northwest 150 173 8,000  Level Memphis Center
02:45PM 36.6925 -86.0636 336° Northwest 150 173 8,000  Level Indianapolis Center
02:46PM 36.7369 -86.0889 335° Northwest 150 173 8,000  Level Indianapolis Center
02:47PM 36.7764 -86.1119 335° Northwest 150 173 8,000  Level Indianapolis Center
02:48PM 36.8092 -86.1306 336° Northwest 150 173 8,000  Level Memphis Center
02:49PM 36.8400 -86.1486 335° Northwest 150 173 8,000  Level Memphis Center
02:50PM 36.8850 -86.1750 335° Northwest 150 173 8,000  Level Memphis Center
02:51PM 36.9239 -86.1967 336° Northwest 150 173 8,000  Level Memphis Center
02:52PM 36.9628 -86.2189 335° Northwest 151 174 8,000 -300 Level Memphis Center
02:58PM 37.1763 -86.3426 335° Northwest 171 197 6,500 -360 Descending FlightAware ADS-B
02:59PM 37.2144 -86.3661 335° Northwest 168 193 6,100 -300 Descending Memphis Center
03:00PM 37.2569 -86.3897 336° Northwest 168 193 5,900 -120 Descending Memphis Center
03:01PM 37.3033 -86.4161 336° Northwest 159 183 5,900 -60 Level Memphis Center
03:06PM 37.5213 -86.5441 335° Northwest 156 180 5,600 -60 Descending FlightAware ADS-B
03:07PM 37.5309 -86.5497 335° Northwest 156 180 5,600  Level FlightAware ADS-B
03:11PM 37.1763 -86.3426 335° Northwest 159 183 5,600  Level FlightAware ADS-B (KBRY)
03:12PM 37.7522 -86.6819 335° Northwest 158 182 5,900 120 Climbing Memphis Center
03:13PM 37.7922 -86.7044 336° Northwest 158 182 5,900  Level Memphis Center
03:14PM 37.8425 -86.7339 335° Northwest 157 181 6,000  Climbing Indianapolis Center
03:15PM 37.8817 -86.7572 335° Northwest 156 180 6,000  Level Indianapolis Center
03:16PM 37.9222 -86.7806 336° Northwest 156 180 6,000  Level Indianapolis Center
03:17PM 37.9619 -86.8042 335° Northwest 157 181 6,000  Level Indianapolis Center
03:18PM 38.0019 -86.8281 335° Northwest 157 181 6,000  Level Indianapolis Center
03:19PM 38.0411 -86.8517 335° Northwest 156 180 6,000  Level Indianapolis Center
03:21PM 38.0797 -86.8744 335° Northwest 156 180 6,000  Level Indianapolis Center
03:22PM 38.1178 -86.8972 335° Northwest 155 178 6,000  Level Indianapolis Center
03:23PM 38.1639 -86.9247 335° Northwest 155 178 6,000  Level Indianapolis Center
03:24PM 38.2019 -86.9478 335° Northwest 155 178 6,000  Level Indianapolis Center
03:25PM 38.2389 -86.9697 335° Northwest 151 174 6,000  Level Indianapolis Center
03:26PM 38.2756 -86.9919 335° Northwest 151 174 6,000  Level Indianapolis Center
03:27PM 38.3114 -87.0128 335° Northwest 148 170 6,000  Level Indianapolis Center
03:28PM 38.3547 -87.0394 334° Northwest 148 170 6,000  Level Indianapolis Center
03:29PM 38.3906 -87.0614 334° Northwest 148 170 6,000  Level Indianapolis Center
03:30PM 38.4278 -87.0836 335° Northwest 148 170 6,000  Level Indianapolis Center
03:31PM 38.4647 -87.1058 335° Northwest 148 170 6,000  Level Indianapolis Center
03:32PM 38.5017 -87.1281 335° Northwest 148 170 6,000  Level Indianapolis Center
03:33PM 38.5381 -87.1506 334° Northwest 147 169 6,000  Level Indianapolis Center
03:34PM 38.5842 -87.1778 335° Northwest 148 170 6,000  Level Indianapolis Center
03:35PM 38.6222 -87.2006 335° Northwest 148 170 6,000  Level Indianapolis Center
03:36PM 38.6589 -87.2239 334° Northwest 148 170 6,000  Level Indianapolis Center
03:37PM 38.6956 -87.2458 335° Northwest 147 169 6,000  Level Indianapolis Center
03:38PM 38.7339 -87.2686 335° Northwest 148 170 6,000  Level Indianapolis Center
03:39PM 38.7717 -87.2917 335° Northwest 148 170 6,000  Level Indianapolis Center
03:40PM 38.8075 -87.3136 334° Northwest 147 169 6,000  Level Indianapolis Center
03:41PM 38.8531 -87.3408 335° Northwest 147 169 6,000  Level Indianapolis Center
03:42PM 38.8908 -87.3642 334° Northwest 147 169 6,000  Level Indianapolis Center
03:43PM 38.9286 -87.3867 335° Northwest 147 169 6,000  Level Indianapolis Center
03:44PM 38.9661 -87.4100 334° Northwest 147 169 6,000  Level Indianapolis Center
03:45PM 39.0033 -87.4342 333° Northwest 148 170 6,000  Level Indianapolis Center
03:46PM 39.0411 -87.4567 335° Northwest 148 170 6,000  Level Indianapolis Center
03:47PM 39.0803 -87.4811 334° Northwest 150 173 6,000  Level Indianapolis Center
03:48PM 39.1203 -87.5056 335° Northwest 153 176 6,000  Level Indianapolis Center
03:49PM 39.1661 -87.5339 334° Northwest 153 176 6,000  Level Indianapolis Center
03:51PM 39.2036 -87.5558 336° Northwest 153 176 6,000  Level Indianapolis Center
03:52PM 39.2428 -87.5806 334° Northwest 153 176 6,000  Level Indianapolis Center
03:53PM 39.2817 -87.6042 335° Northwest 153 176 6,000  Level Indianapolis Center
03:54PM 39.3194 -87.6289 333° Northwest 153 176 6,000  Level Indianapolis Center
03:55PM 39.3589 -87.6522 335° Northwest 153 176 6,000  Level Indianapolis Center
03:56PM 39.3967 -87.6769 333° Northwest 153 176 6,000  Level Indianapolis Center
03:57PM 39.4433 -87.7053 335° Northwest 153 176 6,000  Level Indianapolis Center
03:58PM 39.4819 -87.7297 334° Northwest 153 176 6,000  Level Indianapolis Center
03:59PM 39.5211 -87.7539 335° Northwest 153 176 6,000  Level Indianapolis Center
04:00PM 39.5592 -87.7772 335° Northwest 154 177 6,000  Level Indianapolis Center
04:01PM 39.5983 -87.8031 333° Northwest 154 177 6,000  Level Indianapolis Center
04:02PM 39.6375 -87.8267 335° Northwest 154 177 6,000  Level Indianapolis Center
04:03PM 39.6856 -87.8575 334° Northwest 156 180 6,000  Level Indianapolis Center
04:04PM 39.7253 -87.8817 335° Northwest 156 180 6,000  Level Indianapolis Center
04:05PM 39.7644 -87.9061 334° Northwest 156 180 6,000  Level Indianapolis Center
04:06PM 39.8042 -87.9322 333° Northwest 157 181 6,000  Level Indianapolis Center
04:07PM 39.8444 -87.9569 335° Northwest 157 181 6,000  Level Indianapolis Center
04:08PM 39.8842 -87.9811 335° Northwest 157 181 6,000  Level Indianapolis Center
04:09PM 39.9369 -88.0081 339° North 154 177 6,000  Level Chicago Center
04:10PM 39.9764 -88.0453 324° Northwest 170 196 6,000  Level Chicago Center
04:11PM 40.0142 -88.0678 335° Northwest 161 185 6,000  Level Chicago Center
04:12PM 40.0533 -88.0900 337° Northwest 158 182 6,000  Level Chicago Center
04:13PM 40.0928 -88.1133 336° Northwest 158 182 6,000  Level Chicago Center
04:14PM 40.1333 -88.1408 333° Northwest 158 182 6,000  Level Chicago Center
04:15PM 40.1719 -88.1656 334° Northwest 157 181 6,000  Level Chicago Center
04:17PM 40.2156 -88.1928 335° Northwest 155 178 6,000  Level Chicago Center
04:18PM 40.2536 -88.2175 334° Northwest 155 178 6,000  Level Chicago Center
04:19PM 40.2928 -88.2425 334° Northwest 155 178 6,000  Level Chicago Center
04:20PM 40.3308 -88.2658 335° Northwest 154 177 6,000  Level Chicago Center
04:21PM 40.3772 -88.2969 333° Northwest 154 177 6,000  Level Chicago Center
04:22PM 40.4078 -88.3156 335° Northwest 154 177 6,000  Level Chicago Center
04:23PM 40.4550 -88.3461 334° Northwest 158 182 6,000  Level Chicago Center
04:24PM 40.4936 -88.3714 334° Northwest 158 182 6,000  Level Chicago Center
04:25PM 40.5317 -88.3972 333° Northwest 158 182 6,000  Level Chicago Center
04:26PM 40.5719 -88.4208 336° Northwest 158 182 6,000  Level Chicago Center
04:27PM 40.6178 -88.4525 332° Northwest 158 182 6,000  Level Chicago Center
04:28PM 40.6569 -88.4775 334° Northwest 157 181 6,000  Level Chicago Center
04:29PM 40.6964 -88.5019 335° Northwest 157 181 6,100  Climbing Chicago Center
04:30PM 40.7358 -88.5283 333° Northwest 157 181 6,100  Level Chicago Center
04:31PM 40.7744 -88.5536 334° Northwest 157 181 6,100  Level Chicago Center
04:32PM 40.8136 -88.5786 334° Northwest 157 181 6,100  Level Chicago Center
04:33PM 40.8600 -88.6100 333° Northwest 157 181 6,100  Level Chicago Center
04:34PM 40.8992 -88.6350 334° Northwest 157 181 6,100  Level Chicago Center
04:35PM 40.9381 -88.6592 335° Northwest 156 180 6,100  Level Chicago Center
04:36PM 40.9761 -88.6853 333° Northwest 155 178 6,100  Level Chicago Center
04:37PM 41.0194 -88.7131 334° Northwest 155 178 6,100  Level Chicago Center
04:38PM 41.0614 -88.7397 334° Northwest 155 178 6,100  Level Chicago Center
04:39PM 41.0992 -88.7656 333° Northwest 155 178 6,100  Level Chicago Center
04:40PM 41.1411 -88.7931 334° Northwest 155 178 6,100  Level Chicago Center
04:41PM 41.1797 -88.8181 334° Northwest 155 178 6,100  Level Chicago Center
04:42PM 41.2156 -88.8433 332° Northwest 155 178 6,100  Level Chicago Center
04:43PM 41.2564 -88.8689 335° Northwest 156 180 6,100  Level Chicago Center
04:44PM 41.2950 -88.8953 333° Northwest 156 180 6,100  Level Chicago Center
04:45PM 41.3419 -88.9261 334° Northwest 156 180 6,100  Level Chicago Center
04:47PM 41.3806 -88.9514 334° Northwest 156 180 6,100  Level Chicago Center
04:48PM 41.4189 -88.9772 333° Northwest 156 180 6,100  Level Chicago Center
04:49PM 41.4628 -88.9844 353° North 169 194 6,100  Level Chicago Center
04:50PM 41.5067 -88.9767 North 165 190 6,100 -60 Level Chicago Center
04:51PM 41.5503 -88.9672 North 164 189 6,000 -60 Descending Chicago Center
04:52PM 41.6031 -88.9556 North 162 186 6,000  Level Chicago Center
04:53PM 41.6478 -88.9461 North 162 186 6,000  Level Chicago Center
04:54PM 41.6925 -88.9364 North 162 186 6,000 -60 Level Chicago Center
05:00PM 41.9585 -88.8834 360° North 164 189 5,600 -120 Descending FlightAware ADS-B (KMDW)
05:00PM 41.9734 -88.8833 North 164 189 5,600  Level FlightAware ADS-B (KMDW)
05:01PM 41.9987 -88.8833 360° North 165 190 5,600  Level FlightAware ADS-B (KMDW)
05:01PM 42.0188 -88.8832 360° North 165 190 5,600  Level FlightAware ADS-B (KMDW)
05:01PM 42.0451 -88.8837 359° North 166 191 5,600  Level FlightAware ADS-B (KMDW)
05:02PM 42.0671 -88.8837 360° North 167 192 5,600  Level FlightAware ADS-B (KMDW)
05:03PM 42.0943 -88.8838 359° North 165 190 5,600  Level FlightAware ADS-B (KMDW)
05:03PM 42.1076 -88.8842 360° North 165 190 5,600  Level FlightAware ADS-B (KMDW)
05:04PM 42.1670 -88.8843 359° North 165 190 5,600  Level FlightAware ADS-B (KMDW)
05:05PM 42.1986 -88.8844 North 166 191 5,600  Level FlightAware ADS-B (KMDW)
05:05PM 42.2135 -88.8845 359° North 163 188 5,600  Level FlightAware ADS-B (KMDW)
05:05PM 42.2278 -88.8849 359° North 164 189 5,600  Level FlightAware ADS-B (KMDW)
05:06PM 42.2430 -88.8848 North 164 189 5,600  Level FlightAware ADS-B (KMDW)
05:06PM 42.2580 -88.8846 North 164 189 5,600  Level FlightAware ADS-B (KMDW)
05:06PM 42.2630 -88.8846 360° North 164 189 5,600  Level FlightAware ADS-B (KMDW)
05:07PM 42.2792 -88.8848 359° North 164 189 5,600  Level FlightAware ADS-B (KMDW)
05:07PM 42.3046 -88.8848 North 165 190 5,600  Level FlightAware ADS-B (KMDW)
05:08PM 42.3547 -88.8849 North 166 191 5,600  Level FlightAware ADS-B (KMDW)
05:09PM 42.3771 -88.8759 34° Northeast 168 193 5,600  Level FlightAware ADS-B (KMDW)
05:09PM 42.3891 -88.8659 34° Northeast 168 193 5,600  Level FlightAware ADS-B (KMDW)
05:09PM 42.4053 -88.8532 30° Northeast 170 196 5,600 240 Level FlightAware ADS-B (KMDW)
05:10PM 42.4369 -88.8292 30° Northeast 171 197 6,000 -120 Climbing Chicago Center
05:11PM 42.4883 -88.7872 31° Northeast 174 200 5,400 -540 Descending Chicago Center
05:12PM 42.5311 -88.7536 30° Northeast 178 205 5,000 -240 Descending Chicago Center
05:13PM 42.5731 -88.7208 30° Northeast 177 204 5,000  Level Chicago Center
05:15PM 42.6131 -88.6878 31° Northeast 174 200 5,000  Level Chicago Center
05:16PM 42.6536 -88.6564 30° Northeast 171 197 5,000  Level Chicago Center
05:17PM 42.6942 -88.6242 30° Northeast 167 192 5,000  Level Chicago Center
05:18PM 42.7419 -88.5864 30° Northeast 167 192 5,000  Level Chicago Center
05:19PM 42.7831 -88.5536 30° Northeast 167 192 5,000  Level Chicago Center
05:20PM 42.8214 -88.5211 32° Northeast 167 192 5,000  Level Chicago Center
05:21PM 42.8617 -88.4903 29° Northeast 167 192 5,000  Level Chicago Center
05:22PM 42.9017 -88.4578 31° Northeast 167 192 5,000 -240 Level Chicago Center
05:23PM 42.9417 -88.4075 43° Northeast 177 204 4,600 -480 Descending Chicago Center
05:24PM 42.9689 -88.3472 58° Northeast 186 214 4,000 -300 Descending Chicago Center
05:25PM 42.9956 -88.2903 57° Northeast 186 214 4,000  Level Chicago Center
05:26PM 43.0186 -88.2369 59° Northeast 176 203 4,000 -300 Level Chicago Center
05:27PM 43.0428 -88.1844 58° Northeast 169 194 3,500 -540 Descending Chicago Center
05:28PM 43.0722 -88.1186 59° Northeast 169 194 3,000 -720 Descending Chicago Center
05:29PM 43.0992 -88.0742 50° Northeast 162 186 2,100 -780 Descending Chicago Center
05:30PM 43.0881 -88.0272 108° East 145 167 1,500 -600 Descending Chicago Center
05:32PM 43.1000 -88.0333 61° Northeast  Level FlightAware Approximate